createdAt,value
2022-08-01T00:00:30.526Z,18.77
2022-08-01T00:03:20.420Z,19.98
2022-08-01T00:06:09.275Z,20.10
2022-08-01T00:08:58.529Z,21.65
2022-08-01T00:11:47.412Z,19.98
2022-08-01T00:14:45.342Z,20.85
2022-08-01T00:17:34.372Z,20.42
2022-08-01T00:20:26.512Z,19.90
2022-08-01T00:23:15.163Z,19.85
2022-08-01T00:25:57.789Z,18.88
2022-08-01T00:28:46.274Z,19.58
2022-08-01T00:31:35.540Z,19.27
2022-08-01T00:34:24.309Z,18.63
2022-08-01T00:37:06.720Z,18.38
2022-08-01T00:39:55.518Z,18.70
2022-08-01T00:42:44.277Z,18.27
2022-08-01T00:45:26.445Z,17.40
2022-08-01T00:48:16.272Z,18.20
2022-08-01T00:50:59.209Z,17.33
2022-08-01T00:53:51.920Z,18.00
2022-08-01T00:56:47.374Z,18.65
2022-08-01T00:59:36.291Z,18.13
2022-08-01T01:02:20.072Z,17.40
2022-08-01T01:05:08.505Z,20.38
2022-08-01T01:07:57.834Z,21.15
2022-08-01T01:11:01.549Z,21.58
2022-08-01T01:14:01.805Z,27.55
2022-08-01T01:16:54.289Z,24.92
2022-08-01T01:19:41.572Z,26.17
2022-08-01T01:23:04.415Z,25.45
2022-08-01T01:25:46.565Z,25.83
2022-08-01T01:28:35.545Z,26.30
2022-08-01T01:31:21.682Z,24.10
2022-08-01T01:34:13.543Z,26.80
2022-08-01T01:36:58.807Z,26.92
2022-08-01T01:39:54.004Z,31.05
2022-08-01T01:42:38.830Z,30.42
2022-08-01T01:45:28.553Z,32.33
2022-08-01T01:48:12.695Z,32.25
2022-08-01T01:51:02.495Z,32.80
2022-08-01T01:53:45.818Z,34.60
2022-08-01T01:56:36.277Z,35.38
2022-08-01T01:59:18.434Z,37.85
2022-08-01T02:02:16.940Z,36.20
2022-08-01T02:05:01.576Z,32.10
2022-08-01T02:07:51.525Z,30.75
2022-08-01T02:10:41.249Z,27.27
2022-08-01T02:13:30.538Z,27.25
2022-08-01T02:16:14.526Z,20.42
2022-08-01T02:19:03.527Z,18.83
2022-08-01T02:21:56.959Z,19.08
2022-08-01T02:24:47.533Z,20.23
2022-08-01T02:27:42.676Z,22.63
2022-08-01T02:30:34.249Z,23.15
2022-08-01T02:33:22.868Z,24.00
2022-08-01T02:36:32.468Z,23.90
2022-08-01T02:39:21.808Z,21.73
2022-08-01T02:42:15.217Z,26.25
2022-08-01T02:44:58.813Z,28.15
2022-08-01T02:47:49.518Z,34.45
2022-08-01T02:50:40.407Z,31.92
2022-08-01T02:53:43.759Z,31.58
2022-08-01T02:56:46.528Z,30.85
2022-08-01T02:59:36.889Z,29.38
2022-08-01T03:02:23.261Z,27.90
2022-08-01T03:05:07.383Z,24.35
2022-08-01T03:08:02.585Z,17.30
2022-08-01T03:10:55.439Z,12.00
2022-08-01T03:13:39.831Z,12.40
2022-08-01T03:16:30.266Z,13.48
2022-08-01T03:19:20.331Z,15.75
2022-08-01T03:22:08.144Z,16.83
2022-08-01T03:25:00.535Z,17.65
2022-08-01T03:27:51.562Z,19.48
2022-08-01T03:30:35.288Z,20.30
2022-08-01T03:33:24.872Z,19.02
2022-08-01T03:36:09.540Z,16.17
2022-08-01T03:39:01.462Z,14.10
2022-08-01T03:41:52.547Z,10.77
2022-08-01T03:44:43.193Z,9.10
2022-08-01T03:47:33.294Z,8.35
2022-08-01T03:50:24.854Z,10.60
2022-08-01T03:53:09.260Z,9.93
2022-08-01T03:55:59.325Z,11.38
2022-08-01T03:58:50.289Z,11.07
2022-08-01T04:01:33.536Z,11.35
2022-08-01T04:04:22.255Z,10.75
2022-08-01T04:07:08.247Z,9.90
2022-08-01T04:09:57.310Z,10.35
2022-08-01T04:12:39.691Z,11.52
2022-08-01T04:15:22.262Z,12.27
2022-08-01T04:18:11.250Z,14.27
2022-08-01T04:20:55.794Z,14.95
2022-08-01T04:23:44.508Z,12.75
2022-08-01T04:26:35.268Z,13.13
2022-08-01T04:29:26.540Z,13.80
2022-08-01T04:32:09.743Z,15.20
2022-08-01T04:35:00.535Z,15.00
2022-08-01T04:37:44.526Z,14.77
2022-08-01T04:40:35.541Z,16.52
2022-08-01T04:43:17.673Z,17.73
2022-08-01T04:46:07.505Z,17.48
2022-08-01T04:48:57.371Z,16.70
2022-08-01T04:51:39.411Z,17.95
2022-08-01T04:54:30.552Z,19.17
2022-08-01T04:57:25.303Z,19.35
2022-08-01T05:00:08.315Z,21.15
2022-08-01T05:02:57.514Z,22.08
2022-08-01T05:05:45.597Z,22.58
2022-08-01T05:08:28.532Z,21.65
2022-08-01T05:11:10.451Z,22.73
2022-08-01T05:14:00.274Z,22.05
2022-08-01T05:16:43.823Z,22.10
2022-08-01T05:19:32.264Z,21.33
2022-08-01T05:22:21.275Z,21.75
2022-08-01T05:25:03.904Z,25.92
2022-08-01T05:27:54.287Z,26.95
2022-08-01T05:30:36.832Z,27.52
2022-08-01T05:33:25.575Z,28.35
2022-08-01T05:36:07.593Z,29.63
2022-08-01T05:38:56.494Z,30.13
2022-08-01T05:41:45.259Z,31.02
2022-08-01T05:44:34.258Z,32.50
2022-08-01T05:47:16.685Z,30.45
2022-08-01T05:50:05.486Z,29.27
2022-08-01T05:52:54.273Z,30.13
2022-08-01T05:55:37.322Z,30.35
2022-08-01T05:58:26.230Z,28.45
2022-08-01T06:01:08.610Z,26.20
2022-08-01T06:03:57.399Z,26.73
2022-08-01T06:06:46.277Z,24.95
2022-08-01T06:09:29.300Z,27.83
2022-08-01T06:12:18.286Z,25.27
2022-08-01T06:15:00.596Z,26.15
2022-08-01T06:17:49.246Z,27.13
2022-08-01T06:20:31.955Z,26.23
2022-08-01T06:23:31.994Z,26.23
2022-08-01T06:26:23.504Z,25.60
2022-08-01T06:29:05.777Z,25.30
2022-08-01T06:31:54.292Z,25.45
2022-08-01T06:34:42.951Z,24.73
2022-08-01T06:37:24.344Z,25.48
2022-08-01T06:40:17.423Z,26.08
2022-08-01T06:42:59.281Z,28.17
2022-08-01T06:45:42.765Z,28.55
2022-08-01T06:48:31.263Z,26.20
2022-08-01T06:51:17.530Z,25.17
2022-08-01T06:54:06.495Z,26.73
2022-08-01T06:57:01.090Z,25.05
2022-08-01T06:59:55.569Z,26.30
2022-08-01T07:02:45.501Z,26.40
2022-08-01T07:05:28.724Z,29.52
2022-08-01T07:08:17.301Z,28.20
2022-08-01T07:11:01.196Z,27.85
2022-08-01T07:13:50.565Z,28.05
2022-08-01T07:16:32.843Z,28.45
2022-08-01T07:19:21.513Z,27.30
2022-08-01T07:22:04.255Z,28.00
2022-08-01T07:24:54.439Z,28.02
2022-08-01T07:27:37.016Z,30.98
2022-08-01T07:30:25.503Z,29.42
2022-08-01T07:33:15.491Z,29.70
2022-08-01T07:36:05.703Z,31.63
2022-08-01T07:38:50.507Z,31.05
2022-08-01T07:42:04.682Z,30.27
2022-08-01T07:44:41.979Z,30.15
2022-08-01T07:47:37.114Z,30.15
2022-08-01T07:50:25.508Z,29.05
2022-08-01T07:53:07.623Z,32.05
2022-08-01T07:55:56.490Z,31.73
2022-08-01T07:58:52.252Z,31.52
2022-08-01T08:01:47.362Z,32.80
2022-08-01T08:04:37.297Z,32.67
2022-08-01T08:07:19.691Z,32.40
2022-08-01T08:10:08.499Z,31.52
2022-08-01T08:12:59.479Z,30.50
2022-08-01T08:15:48.469Z,30.50
2022-08-01T08:18:30.267Z,31.77
2022-08-01T08:21:12.612Z,34.63
2022-08-01T08:24:19.490Z,31.85
2022-08-01T08:27:02.830Z,32.08
2022-08-01T08:29:51.512Z,32.45
2022-08-01T08:32:33.361Z,32.55
2022-08-01T08:35:40.372Z,31.27
2022-08-01T08:38:32.660Z,31.08
2022-08-01T08:41:20.728Z,29.85
2022-08-01T08:44:05.357Z,29.85
2022-08-01T08:47:00.283Z,28.13
2022-08-01T08:49:52.532Z,28.40
2022-08-01T08:52:35.552Z,27.05
2022-08-01T08:55:26.509Z,28.70
2022-08-01T08:58:08.924Z,30.13
2022-08-01T09:00:57.479Z,31.45
2022-08-01T09:03:53.265Z,33.05
2022-08-01T09:06:42.541Z,32.47
2022-08-01T09:09:24.555Z,32.47
2022-08-01T09:12:13.265Z,31.70
2022-08-01T09:15:03.258Z,30.85
2022-08-01T09:17:52.482Z,30.58
2022-08-01T09:20:36.717Z,27.23
2022-08-01T09:23:54.234Z,25.23
2022-08-01T09:26:41.659Z,26.60
2022-08-01T09:29:38.332Z,26.08
2022-08-01T09:32:22.762Z,25.42
2022-08-01T09:35:36.304Z,25.60
2022-08-01T09:38:37.532Z,25.08
2022-08-01T09:41:37.444Z,22.65
2022-08-01T09:44:42.193Z,22.25
2022-08-01T09:47:40.275Z,22.63
2022-08-01T09:50:29.483Z,22.95
2022-08-01T09:53:30.361Z,22.55
2022-08-01T09:56:20.255Z,23.42
2022-08-01T09:59:02.951Z,22.83
2022-08-01T10:02:03.252Z,23.58
2022-08-01T10:05:03.445Z,24.30
2022-08-01T10:08:08.498Z,23.15
2022-08-01T10:11:18.240Z,23.48
2022-08-01T10:14:00.956Z,24.25
2022-08-01T10:17:05.353Z,22.58
2022-08-01T10:19:52.370Z,20.60
2022-08-01T10:22:44.238Z,22.38
2022-08-01T10:25:42.379Z,22.58
2022-08-01T10:28:34.207Z,21.60
2022-08-01T10:31:30.860Z,23.70
2022-08-01T10:34:20.522Z,24.13
2022-08-01T10:37:07.033Z,24.50
2022-08-01T10:40:14.234Z,23.23
2022-08-01T10:43:00.739Z,24.45
2022-08-01T10:45:52.341Z,26.42
2022-08-01T10:48:48.949Z,25.20
2022-08-01T10:51:52.740Z,24.98
2022-08-01T10:54:36.979Z,19.05
2022-08-01T10:57:27.657Z,19.50
2022-08-01T11:00:10.109Z,21.48
2022-08-01T11:03:12.218Z,23.70
2022-08-01T11:06:07.261Z,25.48
2022-08-01T11:09:03.332Z,27.05
2022-08-01T11:12:25.173Z,26.33
2022-08-01T11:15:14.743Z,27.17
2022-08-01T11:17:57.661Z,27.13
2022-08-01T11:21:57.659Z,26.00
2022-08-01T11:24:06.481Z,24.50
2022-08-01T11:27:33.993Z,25.02
2022-08-01T11:30:20.069Z,23.60
2022-08-01T11:33:11.300Z,23.50
2022-08-01T11:36:56.800Z,21.42
2022-08-01T11:39:38.709Z,21.83
2022-08-01T11:42:35.481Z,21.33
2022-08-01T11:45:18.777Z,22.27
2022-08-01T11:48:07.263Z,22.65
2022-08-01T11:50:51.935Z,23.88
2022-08-01T11:53:42.239Z,22.33
2022-08-01T11:56:31.521Z,19.05
2022-08-01T11:59:15.381Z,20.25
2022-08-01T12:02:10.512Z,16.80
2022-08-01T12:04:58.852Z,13.38
2022-08-01T12:07:52.631Z,13.02
2022-08-01T12:10:49.705Z,14.20
2022-08-01T12:13:38.235Z,13.20
2022-08-01T12:16:33.085Z,13.77
2022-08-01T12:19:16.927Z,11.75
2022-08-01T12:22:23.491Z,11.27
2022-08-01T12:25:14.986Z,11.63
2022-08-01T12:28:03.234Z,11.38
2022-08-01T12:30:46.644Z,11.90
2022-08-01T12:33:35.346Z,12.45
2022-08-01T12:36:24.270Z,11.95
2022-08-01T12:39:07.182Z,12.30
2022-08-01T12:41:59.288Z,12.82
2022-08-01T12:44:49.664Z,12.88
2022-08-01T12:47:33.488Z,11.90
2022-08-01T12:50:24.680Z,11.20
2022-08-01T12:53:07.305Z,11.68
2022-08-01T12:56:00.033Z,11.70
2022-08-01T12:58:50.239Z,12.90
2022-08-01T13:01:32.778Z,13.48
2022-08-01T13:04:27.513Z,14.30
2022-08-01T13:07:16.810Z,13.35
2022-08-01T13:10:00.260Z,13.50
2022-08-01T13:12:52.985Z,13.32
2022-08-01T13:15:44.253Z,13.05
2022-08-01T13:18:40.487Z,12.80
2022-08-01T13:21:28.609Z,12.40
2022-08-01T13:24:21.245Z,12.30
2022-08-01T13:27:13.875Z,11.73
2022-08-01T13:30:02.494Z,12.40
2022-08-01T13:32:52.474Z,11.68
2022-08-01T13:35:41.952Z,12.38
2022-08-01T13:38:23.258Z,12.43
2022-08-01T13:41:12.223Z,12.00
2022-08-01T13:43:58.120Z,11.98
2022-08-01T13:46:51.378Z,13.00
2022-08-01T13:49:38.089Z,12.30
2022-08-01T13:52:29.222Z,12.38
2022-08-01T13:55:11.549Z,12.05
2022-08-01T13:58:00.230Z,11.60
2022-08-01T14:00:42.835Z,13.00
2022-08-01T14:03:38.254Z,12.50
2022-08-01T14:06:28.624Z,12.85
2022-08-01T14:09:18.146Z,13.07
2022-08-01T14:12:12.217Z,12.93
2022-08-01T14:14:58.310Z,13.60
2022-08-01T14:17:48.098Z,12.82
2022-08-01T14:20:30.927Z,13.00
2022-08-01T14:23:19.501Z,12.43
2022-08-01T14:26:09.821Z,12.82
2022-08-01T14:29:01.211Z,13.02
2022-08-01T14:31:50.476Z,12.70
2022-08-01T14:34:39.281Z,12.50
2022-08-01T14:37:21.813Z,11.77
2022-08-01T14:40:14.242Z,12.38
2022-08-01T14:43:25.157Z,12.88
2022-08-01T14:46:11.804Z,14.45
2022-08-01T14:49:00.349Z,13.35
2022-08-01T14:51:42.813Z,12.52
2022-08-01T14:54:31.474Z,13.43
2022-08-01T14:57:20.239Z,13.48
2022-08-01T15:00:09.472Z,12.48
2022-08-01T15:02:51.596Z,12.80
2022-08-01T15:05:46.219Z,12.90
2022-08-01T15:08:28.924Z,13.65
2022-08-01T15:11:23.875Z,13.27
2022-08-01T15:14:24.627Z,16.02
2022-08-01T15:17:13.475Z,13.65
2022-08-01T15:19:57.447Z,13.52
2022-08-01T15:22:48.081Z,15.00
2022-08-01T15:25:40.911Z,15.07
2022-08-01T15:28:25.151Z,15.95
2022-08-01T15:31:14.784Z,15.45
2022-08-01T15:33:56.491Z,15.80
2022-08-01T15:36:45.227Z,16.27
2022-08-01T15:39:30.940Z,16.48
2022-08-01T15:42:27.044Z,17.63
2022-08-01T15:45:20.757Z,17.80
2022-08-01T15:48:18.279Z,18.52
2022-08-01T15:51:00.801Z,18.10
2022-08-01T15:53:51.293Z,19.23
2022-08-01T15:56:40.464Z,19.05
2022-08-01T15:59:22.961Z,20.05
2022-08-01T16:02:12.517Z,20.27
2022-08-01T16:05:07.505Z,19.63
2022-08-01T16:08:01.213Z,19.73
2022-08-01T16:10:43.236Z,20.08
2022-08-01T16:13:31.713Z,19.92
2022-08-01T16:16:16.233Z,19.13
2022-08-01T16:19:05.287Z,18.95
2022-08-01T16:21:49.237Z,19.30
2022-08-01T16:24:38.234Z,18.33
2022-08-01T16:27:23.296Z,18.80
2022-08-01T16:30:15.217Z,19.08
2022-08-01T16:32:59.893Z,18.45
2022-08-01T16:35:54.471Z,19.27
2022-08-01T16:38:43.486Z,19.52
2022-08-01T16:41:32.647Z,19.15
2022-08-01T16:44:33.117Z,18.65
2022-08-01T16:47:22.500Z,19.05
2022-08-01T16:50:12.471Z,20.08
2022-08-01T16:52:54.824Z,18.48
2022-08-01T16:55:49.339Z,20.05
2022-08-01T16:58:32.676Z,20.20
2022-08-01T17:01:58.605Z,21.60
2022-08-01T17:04:30.559Z,20.00
2022-08-01T17:07:26.338Z,20.27
2022-08-01T17:10:18.486Z,20.45
2022-08-01T17:13:07.236Z,22.10
2022-08-01T17:15:59.215Z,21.15
2022-08-01T17:18:41.985Z,21.65
2022-08-01T17:21:30.470Z,21.92
2022-08-01T17:24:16.432Z,23.83
2022-08-01T17:27:08.159Z,21.75
2022-08-01T17:29:52.889Z,21.98
2022-08-01T17:32:44.230Z,22.15
2022-08-01T17:35:33.212Z,23.52
2022-08-01T17:38:15.701Z,23.25
2022-08-01T17:41:05.470Z,22.95
2022-08-01T17:43:54.476Z,24.90
2022-08-01T17:46:36.659Z,22.40
2022-08-01T17:49:52.139Z,23.10
2022-08-01T17:52:29.535Z,23.73
2022-08-01T17:55:56.078Z,22.88
2022-08-01T17:58:49.081Z,23.58
2022-08-01T18:01:30.118Z,22.45
2022-08-01T18:04:28.476Z,22.48
2022-08-01T18:08:01.357Z,22.85
2022-08-01T18:10:40.299Z,23.48
2022-08-01T18:13:30.476Z,23.75
2022-08-01T18:16:14.594Z,23.70
2022-08-01T18:19:03.512Z,24.23
2022-08-01T18:21:52.239Z,22.92
2022-08-01T18:24:35.458Z,23.33
2022-08-01T18:27:24.451Z,23.42
2022-08-01T18:30:26.617Z,23.42
2022-08-01T18:33:15.642Z,23.77
2022-08-01T18:36:05.473Z,24.17
2022-08-01T18:38:47.875Z,24.42
2022-08-01T18:41:36.813Z,24.83
2022-08-01T18:44:19.190Z,25.27
2022-08-01T18:47:08.415Z,23.75
2022-08-01T18:49:57.953Z,24.10
2022-08-01T18:52:46.460Z,25.77
2022-08-01T18:55:35.482Z,24.77
2022-08-01T18:58:17.501Z,23.52
2022-08-01T19:01:06.338Z,26.85
2022-08-01T19:11:20.470Z,25.90
2022-08-01T19:14:10.494Z,25.80
2022-08-01T19:16:52.669Z,26.10
2022-08-01T19:19:42.448Z,26.58
2022-08-01T19:22:24.814Z,25.75
2022-08-01T19:25:13.208Z,25.08
2022-08-01T19:27:59.834Z,27.15
2022-08-01T19:30:53.503Z,29.10
2022-08-01T19:33:40.583Z,30.17
2022-08-01T19:36:34.485Z,31.95
2022-08-01T19:39:19.019Z,30.08
2022-08-01T19:42:13.232Z,31.70
2022-08-01T19:44:56.814Z,33.83
2022-08-01T19:47:51.558Z,34.28
2022-08-01T19:50:42.853Z,36.67
2022-08-01T19:53:32.482Z,37.25
2022-08-01T19:56:22.238Z,37.95
2022-08-01T19:59:05.458Z,37.35
2022-08-01T20:01:55.222Z,38.33
2022-08-01T20:04:38.110Z,37.28
2022-08-01T20:07:27.264Z,38.67
2022-08-01T20:10:23.329Z,39.13
2022-08-01T20:13:19.221Z,37.83
2022-08-01T20:16:04.292Z,39.35
2022-08-01T20:18:54.255Z,38.30
2022-08-01T20:21:37.751Z,37.42
2022-08-01T20:24:30.202Z,36.95
2022-08-01T20:27:23.472Z,35.88
2022-08-01T20:30:07.484Z,35.65
2022-08-01T20:32:58.122Z,36.08
2022-08-01T20:35:53.561Z,35.42
2022-08-01T20:38:42.767Z,34.17
2022-08-01T20:41:26.268Z,34.05
2022-08-01T20:44:16.642Z,33.10
2022-08-01T20:47:00.490Z,33.85
2022-08-01T20:49:50.782Z,34.40
2022-08-01T20:52:32.245Z,35.33
2022-08-01T20:55:20.518Z,33.05
2022-08-01T20:58:04.200Z,34.33
2022-08-01T21:00:55.538Z,33.80
2022-08-01T21:03:51.470Z,33.63
2022-08-01T21:06:46.224Z,34.53
2022-08-01T21:09:36.865Z,33.67
2022-08-01T21:12:59.324Z,37.95
2022-08-01T21:16:23.176Z,35.85
2022-08-01T21:19:28.759Z,33.95
2022-08-01T21:22:27.250Z,35.47
2022-08-01T21:25:20.498Z,34.25
2022-08-01T21:28:03.212Z,33.42
2022-08-01T21:30:53.851Z,32.92
2022-08-01T21:33:38.215Z,32.97
2022-08-01T21:36:53.227Z,32.75
2022-08-01T21:39:36.449Z,32.10
2022-08-01T21:42:24.580Z,34.45
2022-08-01T21:45:09.481Z,32.47
2022-08-01T21:47:53.333Z,31.02
2022-08-01T21:50:46.212Z,30.05
2022-08-01T21:53:43.455Z,31.20
2022-08-01T21:56:58.465Z,30.92
2022-08-01T22:00:01.570Z,29.15
2022-08-01T22:02:55.469Z,30.15
2022-08-01T22:05:50.904Z,31.65
2022-08-01T22:08:46.453Z,31.45
2022-08-01T22:11:31.408Z,30.08
2022-08-01T22:14:24.193Z,31.38
2022-08-01T22:17:06.438Z,32.28
2022-08-01T22:19:56.222Z,31.17
2022-08-01T22:22:52.222Z,30.52
2022-08-01T22:25:36.783Z,29.08
2022-08-01T22:28:26.216Z,32.05
2022-08-01T22:31:08.592Z,32.10
2022-08-01T22:33:57.194Z,32.47
2022-08-01T22:36:46.226Z,31.25
2022-08-01T22:39:39.778Z,30.30
2022-08-01T22:42:22.270Z,31.88
2022-08-01T22:45:40.051Z,31.63
2022-08-01T22:48:34.876Z,31.35
2022-08-01T22:51:27.857Z,32.55
2022-08-01T22:54:26.202Z,32.58
2022-08-01T22:57:37.298Z,32.55
2022-08-01T23:00:27.203Z,32.55
2022-08-01T23:03:34.769Z,32.85
2022-08-01T23:06:26.466Z,34.30
2022-08-01T23:09:09.735Z,35.67
2022-08-01T23:12:00.221Z,34.75
2022-08-01T23:14:56.354Z,36.47
2022-08-01T23:17:46.217Z,38.83
2022-08-01T23:20:29.520Z,37.45
2022-08-01T23:23:18.238Z,41.20
2022-08-01T23:26:15.468Z,42.83
2022-08-01T23:29:06.215Z,45.33
2022-08-01T23:32:03.048Z,45.90
2022-08-01T23:34:54.713Z,46.33
2022-08-01T23:37:37.215Z,44.88
2022-08-01T23:40:26.532Z,44.42
2022-08-01T23:43:16.652Z,44.88
2022-08-01T23:46:03.746Z,44.40
2022-08-01T23:48:54.472Z,42.67
2022-08-01T23:51:43.229Z,46.00
2022-08-01T23:54:25.762Z,45.60
2022-08-01T23:57:14.448Z,50.10
2022-08-01T23:59:58.515Z,49.08
